createdAt,value
2022-07-28T00:00:16.697Z,49.52
2022-07-28T00:02:43.135Z,49.64
2022-07-28T00:05:09.551Z,49.82
2022-07-28T00:07:35.981Z,50.20
2022-07-28T00:10:02.342Z,50.41
2022-07-28T00:12:28.705Z,50.72
2022-07-28T00:14:55.140Z,51.14
2022-07-28T00:17:21.538Z,51.61
2022-07-28T00:19:47.916Z,51.89
2022-07-28T00:22:14.276Z,52.30
2022-07-28T00:24:40.667Z,52.60
2022-07-28T00:27:07.050Z,53.02
2022-07-28T00:29:49.938Z,53.35
2022-07-28T00:31:59.912Z,53.64
2022-07-28T00:34:26.577Z,53.73
2022-07-28T00:36:52.693Z,54.09
2022-07-28T00:39:19.091Z,54.27
2022-07-28T00:41:45.451Z,54.99
2022-07-28T00:44:12.215Z,55.51
2022-07-28T00:46:38.256Z,57.33
2022-07-28T00:49:04.646Z,56.72
2022-07-28T00:51:31.022Z,56.69
2022-07-28T00:53:57.459Z,57.83
2022-07-28T00:56:23.825Z,58.23
2022-07-28T00:58:50.326Z,58.29
2022-07-28T01:01:16.851Z,58.06
2022-07-28T01:03:43.147Z,58.65
2022-07-28T01:06:09.613Z,58.80
2022-07-28T01:08:35.989Z,59.25
2022-07-28T01:11:02.353Z,59.84
2022-07-28T01:13:30.123Z,60.01
2022-07-28T01:15:55.173Z,60.27
2022-07-28T01:18:21.590Z,60.19
2022-07-28T01:20:48.060Z,60.04
2022-07-28T01:23:14.451Z,60.61
2022-07-28T01:25:40.828Z,60.49
2022-07-28T01:28:07.218Z,60.50
2022-07-28T01:30:33.645Z,61.50
2022-07-28T01:33:00.059Z,61.32
2022-07-28T01:35:26.512Z,61.79
2022-07-28T01:37:52.878Z,61.86
2022-07-28T01:40:19.378Z,62.06
2022-07-28T01:42:45.779Z,62.37
2022-07-28T01:45:12.243Z,62.34
2022-07-28T01:47:38.605Z,62.73
2022-07-28T01:50:05.108Z,62.95
2022-07-28T01:52:31.544Z,62.97
2022-07-28T01:54:57.976Z,63.16
2022-07-28T01:57:24.384Z,63.46
2022-07-28T01:59:50.758Z,63.75
2022-07-28T02:02:17.147Z,63.69
2022-07-28T02:04:43.688Z,63.83
2022-07-28T02:07:10.038Z,64.23
2022-07-28T02:09:36.409Z,63.80
2022-07-28T02:12:02.823Z,62.93
2022-07-28T02:14:29.196Z,63.72
2022-07-28T02:16:55.587Z,64.36
2022-07-28T02:19:22.103Z,64.89
2022-07-28T02:21:48.487Z,64.87
2022-07-28T02:24:15.433Z,65.02
2022-07-28T02:26:41.384Z,64.19
2022-07-28T02:29:07.746Z,64.03
2022-07-28T02:31:34.227Z,63.38
2022-07-28T02:34:02.063Z,62.66
2022-07-28T02:36:26.902Z,62.66
2022-07-28T02:38:53.273Z,63.51
2022-07-28T02:41:19.639Z,63.78
2022-07-28T02:43:49.548Z,64.48
2022-07-28T02:46:12.448Z,65.21
2022-07-28T02:48:38.818Z,65.49
2022-07-28T02:51:05.208Z,65.87
2022-07-28T02:53:31.651Z,65.92
2022-07-28T02:55:58.014Z,66.17
2022-07-28T02:58:24.516Z,66.83
2022-07-28T03:00:50.882Z,66.88
2022-07-28T03:03:17.534Z,66.01
2022-07-28T03:05:43.898Z,67.25
2022-07-28T03:08:10.468Z,67.12
2022-07-28T03:10:36.881Z,66.80
2022-07-28T03:13:03.310Z,66.70
2022-07-28T03:15:29.649Z,66.40
2022-07-28T03:17:56.040Z,66.14
2022-07-28T03:20:22.405Z,66.18
2022-07-28T03:22:48.777Z,66.42
2022-07-28T03:25:15.194Z,66.59
2022-07-28T03:27:41.557Z,66.58
2022-07-28T03:30:07.923Z,66.25
2022-07-28T03:32:34.313Z,66.50
2022-07-28T03:35:00.702Z,66.64
2022-07-28T03:37:27.071Z,67.09
2022-07-28T03:39:53.460Z,67.51
2022-07-28T03:42:19.904Z,67.78
2022-07-28T03:44:46.268Z,67.76
2022-07-28T03:47:12.639Z,67.80
2022-07-28T03:49:39.029Z,68.20
2022-07-28T03:52:05.399Z,70.13
2022-07-28T03:54:31.856Z,71.74
2022-07-28T03:56:58.232Z,71.68
2022-07-28T03:59:24.605Z,74.34
2022-07-28T04:01:51.197Z,76.81
2022-07-28T04:04:17.892Z,80.10
2022-07-28T04:06:43.930Z,82.52
2022-07-28T04:09:10.349Z,83.07
2022-07-28T04:11:36.726Z,83.81
2022-07-28T04:14:03.123Z,81.93
2022-07-28T04:16:29.625Z,79.94
2022-07-28T04:18:55.989Z,78.23
2022-07-28T04:21:22.360Z,76.91
2022-07-28T04:23:48.746Z,75.97
2022-07-28T04:26:15.185Z,74.96
2022-07-28T04:28:41.619Z,74.08
2022-07-28T04:31:08.084Z,73.56
2022-07-28T04:33:34.403Z,72.90
2022-07-28T04:36:00.780Z,71.84
2022-07-28T04:38:27.246Z,72.44
2022-07-28T04:40:53.614Z,72.69
2022-07-28T04:43:19.975Z,72.96
2022-07-28T04:45:54.178Z,73.29
2022-07-28T04:48:12.735Z,73.56
2022-07-28T04:50:39.202Z,73.27
2022-07-28T04:53:05.644Z,73.09
2022-07-28T04:55:32.012Z,72.84
2022-07-28T04:57:58.508Z,72.34
2022-07-28T05:00:24.874Z,72.39
2022-07-28T05:02:51.281Z,72.56
2022-07-28T05:05:17.802Z,72.88
2022-07-28T05:07:44.130Z,72.96
2022-07-28T05:10:10.497Z,72.84
2022-07-28T05:12:36.914Z,72.39
2022-07-28T05:15:03.291Z,72.08
2022-07-28T05:17:29.772Z,72.23
2022-07-28T05:19:56.207Z,72.82
2022-07-28T05:22:22.593Z,73.12
2022-07-28T05:24:49.060Z,73.47
2022-07-28T05:27:15.452Z,72.86
2022-07-28T05:29:47.036Z,72.00
2022-07-28T05:32:08.201Z,71.30
2022-07-28T05:34:34.602Z,71.97
2022-07-28T05:37:00.978Z,72.49
2022-07-28T05:39:27.457Z,72.78
2022-07-28T05:41:53.763Z,72.44
2022-07-28T05:44:20.154Z,72.50
2022-07-28T05:46:46.513Z,72.62
2022-07-28T05:49:13.025Z,73.15
2022-07-28T05:51:41.821Z,72.80
2022-07-28T05:54:05.655Z,72.38
2022-07-28T05:56:32.086Z,72.89
2022-07-28T05:58:58.447Z,73.47
2022-07-28T06:01:24.851Z,73.34
2022-07-28T06:04:09.993Z,73.25
2022-07-28T06:06:17.597Z,73.05
2022-07-28T06:08:43.982Z,73.28
2022-07-28T06:11:10.480Z,72.20
2022-07-28T06:13:36.871Z,71.85
2022-07-28T06:16:03.264Z,71.65
2022-07-28T06:18:29.617Z,71.44
2022-07-28T06:20:55.989Z,71.31
2022-07-28T06:23:22.448Z,71.45
2022-07-28T06:25:48.837Z,70.67
2022-07-28T06:28:15.215Z,70.31
2022-07-28T06:30:41.667Z,69.99
2022-07-28T06:33:08.082Z,69.78
2022-07-28T06:35:45.891Z,68.87
2022-07-28T06:38:00.969Z,68.40
2022-07-28T06:40:27.368Z,68.52
2022-07-28T06:42:53.741Z,67.30
2022-07-28T06:45:21.627Z,66.30
2022-07-28T06:47:47.294Z,65.82
2022-07-28T06:50:25.207Z,65.52
2022-07-28T06:52:39.532Z,65.15
2022-07-28T06:55:05.954Z,64.96
2022-07-28T06:57:33.703Z,64.58
2022-07-28T06:59:58.832Z,63.41
2022-07-28T07:02:28.168Z,63.01
2022-07-28T07:04:51.577Z,62.09
2022-07-28T07:07:17.957Z,60.08
2022-07-28T07:09:44.337Z,59.62
2022-07-28T07:12:10.726Z,59.04
2022-07-28T07:14:37.110Z,58.56
2022-07-28T07:17:03.556Z,57.95
2022-07-28T07:19:29.912Z,58.04
2022-07-28T07:21:56.290Z,57.83
2022-07-28T07:24:22.668Z,57.92
2022-07-28T07:26:49.074Z,57.59
2022-07-28T07:29:15.457Z,56.86
2022-07-28T07:31:41.893Z,55.90
2022-07-28T07:34:08.248Z,56.52
2022-07-28T07:36:34.636Z,57.38
2022-07-28T07:39:01.151Z,58.25
2022-07-28T07:41:27.576Z,58.57
2022-07-28T07:43:53.953Z,58.30
2022-07-28T07:46:20.385Z,57.69
2022-07-28T07:48:46.781Z,56.94
2022-07-28T07:51:15.485Z,56.69
2022-07-28T07:53:39.535Z,55.99
2022-07-28T07:56:06.265Z,56.24
2022-07-28T07:58:32.633Z,55.05
2022-07-28T08:00:59.010Z,55.21
2022-07-28T08:03:26.500Z,54.93
2022-07-28T08:05:52.112Z,54.62
2022-07-28T08:08:18.491Z,53.88
2022-07-28T08:10:44.858Z,53.45
2022-07-28T08:13:11.249Z,53.18
2022-07-28T08:15:37.618Z,52.75
2022-07-28T08:18:04.007Z,52.29
2022-07-28T08:20:30.475Z,52.61
2022-07-28T08:22:56.841Z,53.45
2022-07-28T08:25:23.224Z,54.09
2022-07-28T08:27:49.642Z,54.32
2022-07-28T08:30:16.970Z,54.57
2022-07-28T08:32:42.506Z,54.67
2022-07-28T08:35:31.558Z,54.97
2022-07-28T08:37:35.301Z,55.40
2022-07-28T08:40:01.674Z,55.68
2022-07-28T08:42:28.068Z,55.80
2022-07-28T08:44:54.437Z,55.87
2022-07-28T08:47:20.815Z,56.02
2022-07-28T08:49:47.219Z,56.21
2022-07-28T08:52:13.613Z,56.26
2022-07-28T08:54:39.986Z,56.12
2022-07-28T08:57:06.369Z,56.25
2022-07-28T08:59:32.738Z,56.19
2022-07-28T09:01:59.196Z,56.37
2022-07-28T09:04:25.493Z,56.62
2022-07-28T09:06:51.863Z,56.44
2022-07-28T09:09:18.281Z,56.24
2022-07-28T09:11:44.676Z,56.11
2022-07-28T09:14:11.441Z,55.62
2022-07-28T09:16:37.446Z,56.10
2022-07-28T09:19:03.879Z,56.19
2022-07-28T09:21:30.239Z,55.95
2022-07-28T09:23:56.669Z,55.95
2022-07-28T09:26:23.030Z,55.27
2022-07-28T09:28:49.427Z,55.32
2022-07-28T09:31:16.673Z,55.87
2022-07-28T09:33:44.001Z,56.00
2022-07-28T09:36:08.747Z,55.95
2022-07-28T09:38:35.114Z,55.61
2022-07-28T09:41:01.488Z,55.04
2022-07-28T09:43:27.898Z,54.95
2022-07-28T09:45:54.310Z,54.65
2022-07-28T09:48:20.826Z,54.48
2022-07-28T09:50:47.024Z,54.58
2022-07-28T09:53:13.420Z,54.74
2022-07-28T09:55:39.794Z,55.15
2022-07-28T09:58:06.200Z,54.57
2022-07-28T10:00:32.624Z,54.64
2022-07-28T10:02:59.052Z,54.52
2022-07-28T10:05:25.411Z,53.79
2022-07-28T10:07:51.813Z,53.65
2022-07-28T10:10:18.179Z,52.92
2022-07-28T10:12:44.570Z,52.53
2022-07-28T10:15:11.016Z,53.03
2022-07-28T10:17:37.394Z,53.52
2022-07-28T10:20:03.792Z,52.91
2022-07-28T10:22:30.202Z,51.57
2022-07-28T10:24:56.589Z,50.15
2022-07-28T10:27:22.974Z,49.20
2022-07-28T10:29:49.364Z,48.50
2022-07-28T10:32:15.746Z,48.10
2022-07-28T10:34:42.136Z,48.77
2022-07-28T10:37:08.503Z,47.36
2022-07-28T10:39:34.899Z,46.08
2022-07-28T10:42:01.301Z,45.93
2022-07-28T10:44:27.690Z,45.79
2022-07-28T10:46:54.109Z,46.37
2022-07-28T10:49:20.640Z,46.65
2022-07-28T10:52:02.487Z,46.59
2022-07-28T10:54:17.501Z,46.66
2022-07-28T10:56:39.654Z,46.50
2022-07-28T10:59:06.022Z,44.64
2022-07-28T11:01:47.531Z,43.84
2022-07-28T11:03:58.929Z,43.57
2022-07-28T11:06:26.100Z,43.96
2022-07-28T11:08:51.609Z,43.78
2022-07-28T11:11:17.998Z,43.50
2022-07-28T11:13:44.402Z,43.88
2022-07-28T11:16:10.785Z,42.37
2022-07-28T11:18:37.170Z,42.65
2022-07-28T11:21:03.557Z,42.63
2022-07-28T11:23:30.431Z,41.91
2022-07-28T11:25:56.302Z,42.03
2022-07-28T11:28:22.673Z,41.77
2022-07-28T11:30:49.113Z,40.52
2022-07-28T11:33:15.487Z,40.62
2022-07-28T11:35:42.020Z,40.95
2022-07-28T11:38:08.411Z,41.15
2022-07-28T11:40:34.798Z,41.41
2022-07-28T11:43:01.175Z,41.73
2022-07-28T11:45:39.313Z,41.21
2022-07-28T11:47:53.915Z,41.54
2022-07-28T11:50:20.294Z,41.09
2022-07-28T11:52:46.830Z,41.26
2022-07-28T11:55:13.233Z,40.81
2022-07-28T11:57:39.626Z,40.63
2022-07-28T12:00:06.065Z,41.33
2022-07-28T12:02:32.619Z,41.13
2022-07-28T12:04:58.978Z,41.14
2022-07-28T12:07:25.326Z,41.61
2022-07-28T12:09:51.689Z,41.68
2022-07-28T12:12:18.080Z,41.84
2022-07-28T12:14:44.468Z,41.67
2022-07-28T12:17:10.880Z,41.66
2022-07-28T12:19:37.204Z,41.99
2022-07-28T12:22:03.591Z,41.90
2022-07-28T12:24:29.972Z,42.34
2022-07-28T12:26:56.406Z,42.19
2022-07-28T12:29:22.784Z,42.14
2022-07-28T12:31:49.298Z,42.39
2022-07-28T12:34:15.969Z,42.57
2022-07-28T12:36:42.041Z,42.73
2022-07-28T12:39:12.796Z,42.87
2022-07-28T12:41:34.785Z,42.93
2022-07-28T12:44:01.158Z,42.90
2022-07-28T12:46:28.458Z,43.25
2022-07-28T12:48:54.048Z,42.67
2022-07-28T12:51:20.398Z,42.92
2022-07-28T12:53:46.769Z,43.05
2022-07-28T12:56:13.171Z,43.25
2022-07-28T12:58:39.571Z,42.54
2022-07-28T13:01:06.019Z,43.29
2022-07-28T13:03:32.360Z,43.66
2022-07-28T13:05:58.738Z,43.79
2022-07-28T13:08:25.211Z,43.13
2022-07-28T13:10:56.649Z,43.60
2022-07-28T13:13:17.980Z,43.71
2022-07-28T13:15:44.355Z,44.07
2022-07-28T13:18:10.770Z,44.38
2022-07-28T13:20:37.167Z,44.47
2022-07-28T13:23:03.564Z,44.84
2022-07-28T13:25:29.961Z,45.12
2022-07-28T13:27:56.344Z,45.19
2022-07-28T13:30:22.742Z,45.19
2022-07-28T13:32:49.209Z,44.97
2022-07-28T13:35:15.819Z,44.89
2022-07-28T13:37:41.876Z,44.84
2022-07-28T13:40:08.332Z,44.47
2022-07-28T13:42:34.639Z,44.00
2022-07-28T13:45:01.703Z,44.08
2022-07-28T13:47:27.456Z,44.17
2022-07-28T13:49:53.961Z,44.70
2022-07-28T13:52:33.322Z,45.21
2022-07-28T13:54:46.694Z,45.36
2022-07-28T13:57:13.422Z,45.79
2022-07-28T13:59:39.447Z,46.14
2022-07-28T14:02:05.848Z,46.37
2022-07-28T14:04:32.232Z,46.19
2022-07-28T14:06:58.597Z,46.59
2022-07-28T14:09:24.990Z,47.04
2022-07-28T14:11:53.481Z,46.97
2022-07-28T14:14:20.004Z,47.22
2022-07-28T14:16:44.176Z,46.52
2022-07-28T14:19:10.543Z,46.30
2022-07-28T14:21:36.969Z,46.57
2022-07-28T14:24:03.365Z,45.51
2022-07-28T14:26:36.890Z,44.76
2022-07-28T14:28:56.206Z,46.16
2022-07-28T14:31:22.775Z,46.15
2022-07-28T14:33:54.315Z,46.35
2022-07-28T14:36:15.562Z,46.09
2022-07-28T14:38:52.955Z,45.70
2022-07-28T14:41:08.374Z,46.68
2022-07-28T14:43:34.865Z,47.36
2022-07-28T14:46:13.487Z,47.59
2022-07-28T14:48:27.729Z,47.86
2022-07-28T14:50:54.161Z,47.38
2022-07-28T14:53:20.530Z,47.34
2022-07-28T14:55:46.927Z,48.09
2022-07-28T14:58:13.349Z,48.75
2022-07-28T15:00:39.806Z,48.75
2022-07-28T15:03:06.349Z,48.42
2022-07-28T15:05:32.628Z,48.63
2022-07-28T15:07:58.993Z,49.01
2022-07-28T15:10:25.381Z,49.67
2022-07-28T15:12:51.759Z,49.31
2022-07-28T15:15:18.127Z,49.21
2022-07-28T15:17:44.530Z,49.16
2022-07-28T15:20:10.898Z,49.35
2022-07-28T15:22:37.380Z,49.10
2022-07-28T15:25:03.767Z,48.76
2022-07-28T15:27:33.354Z,48.99
2022-07-28T15:29:56.537Z,48.92
2022-07-28T15:32:24.366Z,48.79
2022-07-28T15:34:49.445Z,48.66
2022-07-28T15:37:15.881Z,49.03
2022-07-28T15:39:45.198Z,48.43
2022-07-28T15:42:08.672Z,48.58
2022-07-28T15:44:35.031Z,48.80
2022-07-28T15:47:01.476Z,48.76
2022-07-28T15:49:28.000Z,48.63
2022-07-28T15:51:54.303Z,49.48
2022-07-28T15:54:20.700Z,49.14
2022-07-28T15:56:47.091Z,48.65
2022-07-28T15:59:13.452Z,48.87
2022-07-28T16:01:44.877Z,48.42
2022-07-28T16:04:06.327Z,48.85
2022-07-28T16:06:32.736Z,48.57
2022-07-28T16:08:59.122Z,49.49
2022-07-28T16:11:25.510Z,49.82
2022-07-28T16:13:51.963Z,51.14
2022-07-28T16:16:18.413Z,50.47
2022-07-28T16:18:44.725Z,50.47
2022-07-28T16:21:11.097Z,51.20
2022-07-28T16:23:37.501Z,51.37
2022-07-28T16:26:03.868Z,52.80
2022-07-28T16:28:30.358Z,53.29
2022-07-28T16:30:56.855Z,54.57
2022-07-28T16:33:23.221Z,55.38
2022-07-28T16:35:49.730Z,56.52
2022-07-28T16:38:16.118Z,56.85
2022-07-28T16:40:42.523Z,57.05
2022-07-28T16:43:08.955Z,55.94
2022-07-28T16:45:35.400Z,56.25
2022-07-28T16:48:01.845Z,56.81
2022-07-28T16:50:28.255Z,57.12
2022-07-28T16:52:54.692Z,58.34
2022-07-28T16:55:23.563Z,59.10
2022-07-28T16:57:47.460Z,59.10
2022-07-28T17:00:13.846Z,58.06
2022-07-28T17:02:40.315Z,58.05
2022-07-28T17:05:06.777Z,58.14
2022-07-28T17:07:33.083Z,57.86
2022-07-28T17:09:59.456Z,57.74
2022-07-28T17:12:25.944Z,59.04
2022-07-28T17:14:52.332Z,58.56
2022-07-28T17:17:18.704Z,59.37
2022-07-28T17:19:45.176Z,59.18
2022-07-28T17:22:11.470Z,59.30
2022-07-28T17:24:37.853Z,59.03
2022-07-28T17:27:36.614Z,59.50
2022-07-28T17:29:30.603Z,57.75
2022-07-28T17:31:57.011Z,56.56
2022-07-28T17:34:23.375Z,56.03
2022-07-28T17:36:49.759Z,54.99
2022-07-28T17:39:16.144Z,54.59
2022-07-28T17:41:42.628Z,54.31
2022-07-28T17:44:09.003Z,54.25
2022-07-28T17:46:35.426Z,54.35
2022-07-28T17:49:01.906Z,54.24
2022-07-28T17:51:28.202Z,53.82
2022-07-28T17:53:54.830Z,53.75
2022-07-28T17:56:20.942Z,53.65
2022-07-28T17:58:47.327Z,53.72
2022-07-28T18:01:13.756Z,53.33
2022-07-28T18:03:56.522Z,54.51
2022-07-28T18:06:06.532Z,54.39
2022-07-28T18:08:32.908Z,55.08
2022-07-28T18:10:59.301Z,55.33
2022-07-28T18:13:25.687Z,55.94
2022-07-28T18:15:52.060Z,56.51
2022-07-28T18:18:18.511Z,57.47
2022-07-28T18:20:44.892Z,56.56
2022-07-28T18:23:11.260Z,56.82
2022-07-28T18:25:39.966Z,58.08
2022-07-28T18:28:04.054Z,59.41
2022-07-28T18:30:30.442Z,60.04
2022-07-28T18:32:56.830Z,58.76
2022-07-28T18:35:23.226Z,60.42
2022-07-28T18:37:49.621Z,58.45
2022-07-28T18:40:16.022Z,60.37
2022-07-28T18:42:42.539Z,60.32
2022-07-28T18:45:08.966Z,61.06
2022-07-28T18:47:35.341Z,59.76
2022-07-28T18:50:01.714Z,58.74
2022-07-28T18:52:29.087Z,58.93
2022-07-28T18:54:55.481Z,57.72
2022-07-28T18:57:21.947Z,59.81
2022-07-28T18:59:52.125Z,59.21
2022-07-28T19:02:14.806Z,58.21
2022-07-28T19:04:41.069Z,58.36
2022-07-28T19:07:07.584Z,58.87
2022-07-28T19:09:37.147Z,60.16
2022-07-28T19:12:00.567Z,61.92
2022-07-28T19:14:26.976Z,62.52
2022-07-28T19:16:53.491Z,62.68
2022-07-28T19:19:19.797Z,61.04
2022-07-28T19:21:46.283Z,59.91
2022-07-28T19:24:13.270Z,61.99
2022-07-28T19:26:39.119Z,62.04
2022-07-28T19:29:05.588Z,60.97
2022-07-28T19:31:32.002Z,61.67
2022-07-28T19:33:58.451Z,63.06
2022-07-28T19:36:24.891Z,64.00
2022-07-28T19:38:51.282Z,64.46
2022-07-28T19:41:17.649Z,63.35
2022-07-28T19:43:44.034Z,63.32
2022-07-28T19:46:10.545Z,62.24
2022-07-28T19:48:36.983Z,61.54
2022-07-28T19:51:03.374Z,60.28
2022-07-28T19:53:32.254Z,60.09
2022-07-28T19:55:56.618Z,59.74
2022-07-28T19:58:22.984Z,58.84
2022-07-28T20:00:49.411Z,58.15
2022-07-28T20:04:01.862Z,59.13
2022-07-28T20:05:42.178Z,60.74
2022-07-28T20:08:08.564Z,61.19
2022-07-28T20:10:35.403Z,61.08
2022-07-28T20:13:01.897Z,61.15
2022-07-28T20:15:28.267Z,60.79
2022-07-28T20:17:54.702Z,60.75
2022-07-28T20:20:21.199Z,60.15
2022-07-28T20:22:47.634Z,59.95
2022-07-28T20:25:14.003Z,60.22
2022-07-28T20:27:41.168Z,59.03
2022-07-28T20:30:06.816Z,58.57
2022-07-28T20:32:33.176Z,58.45
2022-07-28T20:34:59.588Z,58.50
2022-07-28T20:37:35.846Z,58.62
2022-07-28T20:39:52.310Z,59.62
2022-07-28T20:42:18.728Z,61.29
2022-07-28T20:44:45.101Z,61.74
2022-07-28T20:47:11.483Z,62.13
2022-07-28T20:49:37.976Z,62.29
2022-07-28T20:52:04.372Z,63.03
2022-07-28T20:54:30.758Z,63.46
2022-07-28T20:56:57.178Z,63.97
2022-07-28T20:59:27.623Z,64.15
2022-07-28T21:01:50.211Z,64.52
2022-07-28T21:04:16.833Z,65.36
2022-07-28T21:06:51.123Z,65.26
2022-07-28T21:09:09.474Z,65.11
2022-07-28T21:11:36.043Z,65.77
2022-07-28T21:14:02.429Z,66.00
2022-07-28T21:16:28.908Z,65.39
2022-07-28T21:18:55.255Z,65.26
2022-07-28T21:21:21.705Z,65.39
2022-07-28T21:23:48.078Z,65.82
2022-07-28T21:26:14.495Z,65.70
2022-07-28T21:28:40.868Z,66.00
2022-07-28T21:31:07.257Z,65.71
2022-07-28T21:33:33.727Z,66.43
2022-07-28T21:36:00.048Z,65.89
2022-07-28T21:38:26.416Z,65.95
2022-07-28T21:40:52.875Z,65.84
2022-07-28T21:43:19.193Z,66.20
2022-07-28T21:45:45.674Z,65.57
2022-07-28T21:48:11.942Z,64.81
2022-07-28T21:50:38.415Z,64.42
2022-07-28T21:53:04.764Z,64.56
2022-07-28T21:55:31.258Z,64.79
2022-07-28T21:57:57.636Z,65.16
2022-07-28T22:00:24.096Z,65.08
2022-07-28T22:02:50.548Z,65.46
2022-07-28T22:05:16.984Z,66.19
2022-07-28T22:07:43.312Z,66.65
2022-07-28T22:10:09.671Z,66.81
2022-07-28T22:12:36.051Z,66.43
2022-07-28T22:15:02.441Z,66.33
2022-07-28T22:17:28.828Z,66.24
2022-07-28T22:19:55.227Z,66.82
2022-07-28T22:22:21.640Z,66.75
2022-07-28T22:24:48.147Z,67.04
2022-07-28T22:27:14.508Z,67.37
2022-07-28T22:29:43.451Z,67.92
2022-07-28T22:32:07.335Z,68.04
2022-07-28T22:34:33.673Z,68.09
2022-07-28T22:37:00.057Z,68.42
2022-07-28T22:39:26.423Z,68.06
2022-07-28T22:41:52.803Z,68.37
2022-07-28T22:44:19.605Z,68.29
2022-07-28T22:46:45.586Z,68.57
2022-07-28T22:49:11.994Z,69.13
2022-07-28T22:51:38.323Z,69.46
2022-07-28T22:54:04.734Z,69.72
2022-07-28T22:56:34.970Z,69.54
2022-07-28T22:58:57.594Z,69.98
2022-07-28T23:01:24.029Z,70.05
2022-07-28T23:03:50.373Z,69.81
2022-07-28T23:06:16.728Z,69.78
2022-07-28T23:08:43.122Z,70.26
2022-07-28T23:11:09.485Z,70.32
2022-07-28T23:13:35.887Z,71.59
2022-07-28T23:16:02.303Z,71.89
2022-07-28T23:18:28.645Z,71.56
2022-07-28T23:20:55.215Z,71.28
2022-07-28T23:23:21.585Z,71.09
2022-07-28T23:25:48.053Z,70.85
2022-07-28T23:28:14.489Z,70.85
2022-07-28T23:30:41.053Z,70.67
2022-07-28T23:33:07.460Z,71.53
2022-07-28T23:35:33.824Z,71.69
2022-07-28T23:38:00.252Z,71.66
2022-07-28T23:40:26.651Z,72.72
2022-07-28T23:42:53.012Z,73.16
2022-07-28T23:45:19.415Z,72.30
2022-07-28T23:47:45.799Z,72.20
2022-07-28T23:50:12.278Z,73.05
2022-07-28T23:52:38.717Z,74.10
2022-07-28T23:55:05.078Z,73.58
2022-07-28T23:57:31.819Z,73.02
2022-07-28T23:59:58.119Z,72.10
